Time;durP1;ratioP1;P1;durP2;ratioP2;P2;SDS_P1;SDS_P2;PMS_P1;PMS_P2;Temp;Humidity;BMP_temperature;BMP_pressure;BME280_temperature;BME280_humidity;BME280_pressure;Samples;Min_cycle;Max_cycle;Signal;HPM_P1;HPM_P2
2023/11/05 03:51:20;;;;;;;3.70;2.50;;;;;;;8.31;87.62;97251.13;126329;1303;638918;-57
2023/11/05 03:54:23;;;;;;;8.30;2.20;;;;;;;8.33;87.44;97270.23;129066;1267;114819;-57
2023/11/05 03:57:25;;;;;;;7.20;2.50;;;;;;;8.35;87.51;97268.91;129157;1270;114750;-60
2023/11/05 04:00:27;;;;;;;4.60;2.40;;;;;;;8.38;87.36;97270.68;128946;1273;115285;-57
2023/11/05 04:03:31;;;;;;;;;;;;;;;8.38;87.55;97274.19;126601;1286;3629616;-57
2023/11/05 04:06:34;;;;;;;7.70;4.80;;;;;;;8.36;87.70;97297.44;129222;1276;114763;-58
2023/11/05 04:09:36;;;;;;;4.40;3.30;;;;;;;8.34;87.46;97300.10;129255;1266;114769;-57
2023/11/05 04:12:38;;;;;;;5.30;3.10;;;;;;;8.33;87.41;97298.64;129230;1286;114712;-57
2023/11/05 04:15:41;;;;;;;5.60;3.40;;;;;;;8.33;87.52;97290.25;129178;1266;127983;-58
2023/11/05 04:18:46;;;;;;;5.20;3.00;;;;;;;8.33;87.73;97282.05;129141;1286;114809;-57
2023/11/05 04:21:48;;;;;;;4.70;2.50;;;;;;;8.33;87.47;97277.08;129142;1264;115405;-58
2023/11/05 04:24:54;;;;;;;3.80;2.70;;;;;;;8.32;87.33;97264.60;129187;1286;114724;-58
2023/11/05 04:27:56;;;;;;;3.50;2.10;;;;;;;8.30;87.30;97263.64;129002;1273;116297;-58
2023/11/05 04:30:58;;;;;;;2.70;2.30;;;;;;;8.31;87.19;97270.55;129143;1286;114820;-58
2023/11/05 04:34:01;;;;;;;3.10;1.80;;;;;;;8.34;87.21;97274.73;129204;1279;115077;-58
2023/11/05 04:37:05;;;;;;;4.10;1.80;;;;;;;8.39;87.29;97280.70;129149;1269;115162;-57
2023/11/05 04:40:08;;;;;;;2.60;1.80;;;;;;;8.44;87.26;97277.07;129238;1263;114727;-58
2023/11/05 04:43:10;;;;;;;3.20;2.00;;;;;;;8.47;87.33;97271.59;129198;1266;114765;-57
2023/11/05 04:46:12;;;;;;;2.10;1.80;;;;;;;8.52;87.21;97262.70;129164;1286;114804;-60
2023/11/05 04:49:14;;;;;;;4.40;1.90;;;;;;;8.56;87.01;97252.48;129410;1282;114719;-60
2023/11/05 04:52:17;;;;;;;2.40;2.10;;;;;;;8.60;86.82;97248.23;129396;1263;128824;-58
2023/11/05 04:55:20;;;;;;;3.80;2.10;;;;;;;8.63;86.79;97245.46;129249;1266;115277;-59
2023/11/05 04:58:22;;;;;;;5.00;2.30;;;;;;;8.64;86.89;97233.61;129282;1286;114783;-58
2023/11/05 05:01:24;;;;;;;4.00;2.00;;;;;;;8.65;86.62;97225.89;129364;1266;114727;-59
2023/11/05 05:04:26;;;;;;;2.30;2.10;;;;;;;8.66;86.41;97218.73;129192;1264;114782;-62
2023/11/05 05:07:28;;;;;;;4.50;1.90;;;;;;;8.66;86.69;97212.83;129342;1269;115931;-59
2023/11/05 05:10:30;;;;;;;3.10;2.00;;;;;;;8.67;86.47;97211.48;129205;1286;114664;-64
2023/11/05 05:13:32;;;;;;;5.10;2.40;;;;;;;8.68;86.51;97203.59;129126;1266;128702;-63
2023/11/05 05:16:35;;;;;;;3.50;2.40;;;;;;;8.69;86.37;97195.36;129077;1263;114933;-64
2023/11/05 05:19:37;;;;;;;2.70;1.90;;;;;;;8.71;86.59;97201.20;129244;1264;115420;-64
2023/11/05 05:22:39;;;;;;;3.40;2.00;;;;;;;8.71;86.54;97203.50;128789;1263;115166;-63
2023/11/05 05:25:41;;;;;;;2.20;1.90;;;;;;;8.72;86.28;97206.25;129096;1286;115288;-63
2023/11/05 05:28:43;;;;;;;7.30;2.40;;;;;;;8.73;86.23;97206.16;129284;1269;114741;-64
2023/11/05 05:31:45;;;;;;;3.20;2.30;;;;;;;8.74;86.62;97207.86;129385;1269;114716;-61
2023/11/05 05:34:47;;;;;;;3.60;2.30;;;;;;;8.75;86.30;97207.27;129178;1286;114812;-61
2023/11/05 05:37:50;;;;;;;2.90;2.30;;;;;;;8.76;86.32;97200.95;129201;1264;114716;-64
2023/11/05 05:40:53;;;;;;;3.70;2.10;;;;;;;8.77;86.29;97198.00;128899;1279;115252;-62
2023/11/05 05:43:55;;;;;;;2.00;1.90;;;;;;;8.77;86.21;97189.92;129249;1286;114778;-63
2023/11/05 05:46:57;;;;;;;4.90;1.70;;;;;;;8.78;85.80;97178.11;129216;1267;114796;-64
2023/11/05 05:49:59;;;;;;;2.40;1.80;;;;;;;8.78;85.74;97171.86;129206;1286;114715;-61
2023/11/05 05:53:01;;;;;;;4.10;2.10;;;;;;;8.79;85.96;97169.10;129207;1267;114718;-65
2023/11/05 05:56:05;;;;;;;2.90;1.80;;;;;;;8.80;85.95;97170.65;129078;1267;115086;-61
2023/11/05 05:59:07;;;;;;;3.00;1.70;;;;;;;8.81;85.65;97166.29;129254;1280;115434;-63
2023/11/05 06:02:09;;;;;;;2.60;1.90;;;;;;;8.82;85.78;97167.24;129329;1286;114724;-64
2023/11/05 06:05:11;;;;;;;2.90;2.10;;;;;;;8.85;85.72;97165.95;128816;1286;114812;-61
2023/11/05 06:08:13;;;;;;;7.40;2.40;;;;;;;8.87;85.86;97173.21;129271;1267;114715;-63
2023/11/05 06:11:15;;;;;;;2.20;2.00;;;;;;;8.89;85.97;97181.23;129324;1286;116240;-60
2023/11/05 06:14:18;;;;;;;4.50;2.50;;;;;;;8.91;85.83;97182.09;128902;1273;116211;-63
2023/11/05 06:17:23;;;;;;;3.30;1.90;;;;;;;8.92;85.57;97169.85;129312;1269;115092;-62
2023/11/05 06:20:25;;;;;;;4.00;2.20;;;;;;;8.94;85.80;97184.44;129222;1282;115227;-63
2023/11/05 06:23:27;;;;;;;2.70;1.60;;;;;;;8.97;86.02;97191.46;129207;1286;114743;-64
2023/11/05 06:26:30;;;;;;;2.10;1.60;;;;;;;9.01;85.70;97193.07;129193;1283;114779;-63
2023/11/05 06:29:32;;;;;;;4.90;1.40;;;;;;;9.05;85.75;97190.39;129170;1283;114743;-64
2023/11/05 06:32:34;;;;;;;2.00;1.70;;;;;;;9.10;85.48;97183.92;129308;1267;114712;-62
2023/11/05 06:35:36;;;;;;;2.80;1.80;;;;;;;9.14;85.50;97175.83;129201;1269;114725;-65
2023/11/05 06:38:40;;;;;;;2.40;1.60;;;;;;;9.20;85.66;97173.17;129123;1270;114804;-58
2023/11/05 06:41:42;;;;;;;2.00;1.80;;;;;;;9.25;85.40;97167.20;129075;1287;114920;-63
2023/11/05 06:44:46;;;;;;;3.30;1.80;;;;;;;9.30;85.31;97158.29;129248;1270;115297;-62
2023/11/05 06:47:48;;;;;;;3.30;1.80;;;;;;;9.36;85.29;97152.03;129272;1284;114830;-64
2023/11/05 06:50:50;;;;;;;3.00;1.80;;;;;;;9.42;84.98;97153.10;129384;1269;115128;-64
2023/11/05 06:53:52;;;;;;;4.10;2.10;;;;;;;9.48;84.84;97157.91;129218;1269;114696;-62
2023/11/05 06:56:54;;;;;;;2.80;1.50;;;;;;;9.52;85.03;97163.85;129138;1286;114711;-61
2023/11/05 06:59:57;;;;;;;2.50;1.80;;;;;;;9.57;84.94;97168.20;129413;1270;114758;-65
2023/11/05 07:02:59;;;;;;;4.30;2.20;;;;;;;9.62;84.87;97172.02;129322;1267;115147;-62
2023/11/05 07:06:01;;;;;;;2.70;1.30;;;;;;;9.67;84.84;97172.98;129122;1269;114811;-62
2023/11/05 07:09:03;;;;;;;3.40;1.40;;;;;;;9.72;84.93;97160.92;129126;1287;114702;-61
2023/11/05 07:12:06;;;;;;;5.30;1.50;;;;;;;9.77;84.80;97156.00;129182;1264;114795;-63
2023/11/05 07:15:10;;;;;;;2.70;1.40;;;;;;;9.81;84.70;97157.71;129065;1286;114684;-63
2023/11/05 07:18:11;;;;;;;1.80;1.70;;;;;;;9.85;84.74;97159.99;130131;1272;114689;-63
2023/11/05 07:21:14;;;;;;;2.80;2.10;;;;;;;9.89;84.69;97161.98;129986;1273;114728;-62
2023/11/05 07:24:17;;;;;;;3.40;2.30;;;;;;;9.91;84.40;97169.41;130143;1256;114747;-62
2023/11/05 07:27:19;;;;;;;3.40;1.70;;;;;;;9.94;84.58;97182.14;129971;1254;115007;-64
2023/11/05 07:30:21;;;;;;;1.80;1.40;;;;;;;9.97;84.54;97180.44;129969;1253;114857;-62
2023/11/05 07:33:23;;;;;;;1.50;1.20;;;;;;;10.00;84.55;97179.93;130019;1256;115323;-62
2023/11/05 07:36:25;;;;;;;3.00;1.50;;;;;;;10.04;84.56;97178.53;129667;1275;116366;-61
2023/11/05 07:39:27;;;;;;;2.60;1.80;;;;;;;10.07;84.15;97175.76;129929;1274;114798;-61
2023/11/05 07:42:29;;;;;;;3.30;1.90;;;;;;;10.10;84.21;97174.15;130129;1254;115167;-63
2023/11/05 07:45:31;;;;;;;2.80;1.80;;;;;;;10.13;83.96;97170.84;129611;1261;116308;-62
2023/11/05 07:48:33;;;;;;;2.60;1.90;;;;;;;10.15;83.82;97168.55;129790;1275;114804;-62
2023/11/05 07:51:37;;;;;;;3.90;2.40;;;;;;;10.18;83.69;97170.92;129999;1275;114651;-61
2023/11/05 07:54:39;;;;;;;4.20;2.10;;;;;;;10.23;84.01;97171.04;130117;1275;114712;-61
2023/11/05 07:57:43;;;;;;;4.40;2.40;;;;;;;10.26;83.44;97170.66;129988;1275;115309;-60
2023/11/05 08:00:46;;;;;;;3.00;1.20;;;;;;;10.30;83.59;97168.48;129695;1254;114891;-63
2023/11/05 08:03:49;;;;;;;2.90;1.80;;;;;;;10.35;83.54;97163.16;130155;1256;114732;-62
2023/11/05 08:06:51;;;;;;;3.10;1.70;;;;;;;10.41;83.59;97160.67;130038;1275;114689;-64
2023/11/05 08:09:54;;;;;;;3.00;2.30;;;;;;;10.47;83.39;97155.45;130192;1254;114941;-62
2023/11/05 08:12:56;;;;;;;2.40;1.80;;;;;;;10.53;83.31;97150.20;130119;1276;114739;-63
2023/11/05 08:15:59;;;;;;;2.70;1.50;;;;;;;10.57;83.30;97148.35;129809;1261;114793;-63
2023/11/05 08:19:01;;;;;;;4.10;1.80;;;;;;;10.65;83.24;97144.19;130156;1257;114784;-61
2023/11/05 08:22:03;;;;;;;1.50;1.30;;;;;;;10.71;82.76;97142.69;130065;1254;114791;-62
2023/11/05 08:25:06;;;;;;;3.00;2.10;;;;;;;10.77;82.90;97145.34;129667;1275;115261;-62
2023/11/05 08:28:09;;;;;;;3.70;1.80;;;;;;;10.82;82.51;97137.45;130223;1256;114705;-62
2023/11/05 08:31:11;;;;;;;4.70;2.40;;;;;;;10.90;82.51;97133.46;130055;1272;115410;-63
2023/11/05 08:34:14;;;;;;;3.80;2.50;;;;;;;10.98;82.18;97123.70;130053;1270;114757;-62
2023/11/05 08:37:16;;;;;;;4.60;3.00;;;;;;;11.10;82.84;97121.94;130250;1275;114756;-61
2023/11/05 08:40:18;;;;;;;3.30;2.00;;;;;;;11.24;82.27;97122.17;130113;1255;128792;-63
2023/11/05 08:43:21;;;;;;;3.30;2.20;;;;;;;11.37;82.23;97122.73;130145;1257;115379;-62
2023/11/05 08:46:23;;;;;;;3.80;2.10;;;;;;;11.50;82.34;97123.67;130078;1256;114679;-62
2023/11/05 08:49:25;;;;;;;2.40;1.90;;;;;;;11.63;81.82;97124.14;130129;1256;114734;-63
2023/11/05 08:52:27;;;;;;;3.20;2.00;;;;;;;11.76;81.79;97125.52;130100;1252;114703;-64
2023/11/05 08:55:30;;;;;;;2.10;1.90;;;;;;;11.87;81.56;97127.22;130118;1275;114712;-61
2023/11/05 08:58:32;;;;;;;1.90;1.70;;;;;;;12.00;81.67;97134.42;130148;1254;115436;-64
2023/11/05 09:01:34;;;;;;;3.40;2.50;;;;;;;12.14;81.44;97132.81;130319;1254;114703;-63
2023/11/05 09:04:37;;;;;;;5.50;2.10;;;;;;;12.26;81.05;97122.88;130191;1257;115318;-57
2023/11/05 09:07:39;;;;;;;3.70;1.80;;;;;;;12.36;80.97;97116.27;130164;1258;114789;-58
2023/11/05 09:10:42;;;;;;;3.30;1.80;;;;;;;12.44;80.54;97116.17;130075;1267;114779;-58
2023/11/05 09:13:45;;;;;;;2.10;1.70;;;;;;;12.53;80.49;97109.00;130177;1257;114777;-58
2023/11/05 09:16:49;;;;;;;4.30;1.80;;;;;;;12.61;80.07;97097.28;130070;1276;114691;-60
2023/11/05 09:19:51;;;;;;;3.20;1.90;;;;;;;12.69;80.02;97098.56;130202;1258;128822;-58
2023/11/05 09:22:53;;;;;;;4.10;1.70;;;;;;;12.77;79.63;97104.02;130062;1256;114788;-58
2023/11/05 09:25:56;;;;;;;3.60;1.90;;;;;;;12.83;79.36;97104.75;130183;1254;115129;-58
2023/11/05 09:28:57;;;;;;;3.60;2.60;;;;;;;12.90;79.64;97111.37;130317;1256;115388;-58
2023/11/05 09:32:00;;;;;;;3.20;1.90;;;;;;;12.97;79.21;97103.95;130166;1252;114741;-58
2023/11/05 09:35:03;;;;;;;3.60;1.90;;;;;;;13.05;79.69;97110.02;130277;1257;114709;-58
2023/11/05 09:38:06;;;;;;;4.60;2.10;;;;;;;13.13;79.04;97105.82;130207;1266;114653;-58
2023/11/05 09:41:08;;;;;;;2.50;1.90;;;;;;;13.18;78.90;97101.56;130135;1258;114788;-59
2023/11/05 09:44:10;;;;;;;3.80;2.10;;;;;;;13.22;78.59;97102.55;129782;1261;114960;-59
2023/11/05 09:47:13;;;;;;;4.50;2.10;;;;;;;13.28;78.51;97100.69;130044;1256;114846;-58
2023/11/05 09:50:16;;;;;;;2.20;1.80;;;;;;;13.33;77.76;97094.80;130145;1275;114757;-58
2023/11/05 09:53:18;;;;;;;3.20;2.00;;;;;;;13.34;77.75;97089.63;130039;1275;114874;-59
2023/11/05 09:56:21;;;;;;;7.30;2.30;;;;;;;13.40;78.15;97089.36;130124;1275;115074;-59
2023/11/05 09:59:23;;;;;;;2.30;1.90;;;;;;;13.47;77.84;97094.10;130098;1272;114776;-65
2023/11/05 10:02:51;;;;;;;3.20;1.90;;;;;;;13.52;77.41;97094.39;130177;1254;114733;-65
2023/11/05 10:05:55;;;;;;;2.60;1.80;;;;;;;13.61;77.24;97088.90;130250;1257;114681;-66
2023/11/05 10:08:57;;;;;;;2.80;2.20;;;;;;;13.69;76.70;97095.05;130348;1257;114733;-64
2023/11/05 10:12:00;;;;;;;2.60;1.90;;;;;;;13.72;76.43;97095.59;130304;1256;114728;-64
2023/11/05 10:15:03;;;;;;;4.10;2.20;;;;;;;13.72;76.04;97096.55;130254;1257;115202;-66
2023/11/05 10:18:06;;;;;;;4.00;2.00;;;;;;;13.68;75.79;97092.30;130371;1264;114741;-66
2023/11/05 10:21:10;;;;;;;2.50;2.00;;;;;;;13.68;76.01;97085.44;130400;1257;114741;-66
2023/11/05 10:24:12;;;;;;;2.70;2.20;;;;;;;13.69;75.56;97080.58;130228;1254;114750;-68
2023/11/05 10:27:27;;;;;;;5.10;1.70;;;;;;;13.70;75.68;97079.38;130463;1256;114712;-65
2023/11/05 10:30:31;;;;;;;4.20;2.00;;;;;;;13.76;76.01;97081.09;130155;1258;114832;-67
2023/11/05 10:33:34;;;;;;;2.80;1.90;;;;;;;13.85;75.76;97083.66;130037;1276;127832;-70
2023/11/05 10:36:36;;;;;;;2.70;2.00;;;;;;;13.94;76.16;97080.11;130238;1260;114703;-67
2023/11/05 10:39:38;;;;;;;3.00;2.50;;;;;;;14.04;75.76;97072.15;130515;1276;114783;-68
2023/11/05 10:42:40;;;;;;;3.70;2.30;;;;;;;14.08;75.00;97073.53;130355;1276;115013;-67
2023/11/05 10:45:43;;;;;;;3.00;1.90;;;;;;;14.08;74.69;97064.92;130420;1256;114703;-68
2023/11/05 10:48:48;;;;;;;2.90;2.10;;;;;;;14.10;74.71;97056.92;130359;1255;115130;-68
2023/11/05 10:51:50;;;;;;;1.70;1.60;;;;;;;14.11;74.30;97056.16;130360;1254;129207;-67
2023/11/05 10:55:10;;;;;;;3.20;1.80;;;;;;;14.08;74.07;97062.44;130479;1256;114801;-68
2023/11/05 10:58:13;;;;;;;2.80;2.00;;;;;;;14.15;74.76;97069.73;130359;1257;114811;-66
2023/11/05 11:01:15;;;;;;;3.00;2.20;;;;;;;14.24;74.62;97067.91;130264;1260;114692;-65
2023/11/05 11:04:18;;;;;;;3.00;1.70;;;;;;;14.38;74.77;97061.48;130353;1264;114740;-67
2023/11/05 11:07:21;;;;;;;4.70;2.10;;;;;;;14.49;74.10;97059.29;130427;1257;114784;-68
2023/11/05 11:10:25;;;;;;;7.20;2.90;;;;;;;14.56;74.12;97056.77;130215;1254;114907;-65
2023/11/05 11:13:30;;;;;;;3.20;2.40;;;;;;;14.60;73.45;97051.31;130416;1256;114733;-65
2023/11/05 11:16:36;;;;;;;4.70;2.40;;;;;;;14.62;73.54;97046.15;130004;1262;115272;-66
2023/11/05 11:19:39;;;;;;;2.00;1.60;;;;;;;14.63;73.47;97044.02;130350;1275;114681;-65
2023/11/05 11:22:45;;;;;;;2.90;2.00;;;;;;;14.58;72.67;97041.67;130232;1254;115090;-65
2023/11/05 11:25:59;;;;;;;2.50;1.90;;;;;;;14.52;72.67;97039.36;129953;1254;115342;-64
2023/11/05 11:29:04;;;;;;;4.20;2.20;;;;;;;14.47;72.99;97035.84;129741;1262;115217;-65
2023/11/05 11:32:07;;;;;;;7.60;2.00;;;;;;;14.46;73.05;97040.23;130156;1276;114926;-65
2023/11/05 11:35:09;;;;;;;2.70;2.10;;;;;;;14.48;73.03;97036.03;130263;1275;114807;-66
2023/11/05 11:38:13;;;;;;;2.70;2.10;;;;;;;14.48;72.45;97031.22;130433;1257;115349;-66
2023/11/05 11:41:15;;;;;;;4.00;1.70;;;;;;;14.47;72.66;97031.41;129956;1276;127917;-66
2023/11/05 11:44:17;;;;;;;3.20;2.00;;;;;;;14.47;72.48;97038.38;130279;1266;114788;-66
2023/11/05 11:47:25;;;;;;;3.40;2.10;;;;;;;14.48;72.60;97035.91;130329;1267;115073;-66
2023/11/05 11:50:27;;;;;;;4.60;2.50;;;;;;;14.51;72.65;97035.67;129921;1261;114856;-66
2023/11/05 11:53:38;;;;;;;4.10;2.30;;;;;;;14.54;72.29;97039.48;130382;1266;114679;-66
2023/11/05 11:56:41;;;;;;;3.80;2.10;;;;;;;14.55;72.64;97042.61;130287;1257;114712;-66
2023/11/05 11:59:47;;;;;;;2.90;1.90;;;;;;;14.55;72.37;97042.38;130029;1276;114791;-66
2023/11/05 12:02:51;;;;;;;2.90;2.00;;;;;;;14.50;71.90;97034.60;129957;1260;115220;-66
2023/11/05 12:05:53;;;;;;;6.50;2.30;;;;;;;14.50;72.44;97037.23;129968;1270;114884;-66
2023/11/05 12:08:55;;;;;;;3.70;2.50;;;;;;;14.54;72.52;97033.32;130239;1276;114711;-66
2023/11/05 12:11:58;;;;;;;3.40;2.10;;;;;;;14.60;72.27;97026.16;130315;1267;114696;-66
2023/11/05 12:15:00;;;;;;;3.40;2.10;;;;;;;14.65;72.70;97031.33;130263;1260;114699;-66
2023/11/05 12:18:04;;;;;;;2.40;2.20;;;;;;;14.65;71.87;97026.12;130263;1257;114753;-66
2023/11/05 12:21:10;;;;;;;5.10;2.50;;;;;;;14.59;72.04;97029.70;130528;1258;115256;-66
2023/11/05 12:24:15;;;;;;;6.20;2.60;;;;;;;14.57;71.92;97038.04;129963;1259;114885;-66
2023/11/05 12:27:18;;;;;;;2.70;1.80;;;;;;;14.51;71.51;97038.73;130167;1261;114880;-65
2023/11/05 12:30:24;;;;;;;3.20;2.00;;;;;;;14.47;72.05;97035.68;130278;1260;114752;-67
2023/11/05 12:33:26;;;;;;;2.70;1.80;;;;;;;14.47;72.06;97035.14;130257;1259;128859;-67
2023/11/05 12:36:28;;;;;;;4.00;2.10;;;;;;;14.47;71.91;97029.89;130091;1260;115096;-66
2023/11/05 12:39:30;;;;;;;4.20;2.30;;;;;;;14.48;71.73;97031.23;130253;1266;114753;-66
2023/11/05 12:42:33;;;;;;;3.30;2.20;;;;;;;14.47;71.45;97025.27;130262;1276;114802;-67
2023/11/05 12:45:35;;;;;;;4.20;2.20;;;;;;;14.49;71.88;97025.59;130245;1266;114817;-67
2023/11/05 12:48:37;;;;;;;2.00;1.80;;;;;;;14.52;71.91;97018.86;130298;1276;114730;-66
2023/11/05 12:51:39;;;;;;;4.30;2.50;;;;;;;14.55;71.60;97016.38;130512;1275;114708;-67
2023/11/05 12:54:41;;;;;;;3.80;2.30;;;;;;;14.50;71.50;97018.38;130361;1276;114738;-68
2023/11/05 12:57:46;;;;;;;4.40;2.00;;;;;;;14.41;71.38;97024.11;130351;1259;114798;-68
2023/11/05 13:00:47;;;;;;;;;;;;;;;14.28;71.26;97029.11;130548;1260;114707;-69
2023/11/05 13:03:50;;;;;;;2.50;1.90;;;;;;;14.11;71.43;97033.20;130355;1273;114753;-67
2023/11/05 13:06:55;;;;;;;4.30;2.40;;;;;;;13.95;71.62;97033.55;130503;1258;114709;-67
2023/11/05 13:09:57;;;;;;;;;;;;;;;13.82;71.67;97042.05;130370;1257;114703;-69
2023/11/05 13:13:00;;;;;;;2.70;1.90;;;;;;;13.69;71.87;97041.59;130514;1257;114722;-69
2023/11/05 13:16:03;;;;;;;5.70;2.50;;;;;;;13.57;72.02;97040.88;130483;1252;115416;-69
2023/11/05 13:19:05;;;;;;;4.10;2.80;;;;;;;13.48;72.66;97044.59;130514;1256;115198;-69
2023/11/05 13:22:07;;;;;;;4.00;2.70;;;;;;;13.42;72.65;97045.17;130403;1269;114715;-69
2023/11/05 13:25:09;;;;;;;4.50;2.80;;;;;;;13.37;73.02;97043.02;130544;1275;114810;-70
2023/11/05 13:28:11;;;;;;;4.60;2.70;;;;;;;13.34;73.30;97047.44;130494;1257;114783;-69
2023/11/05 13:31:13;;;;;;;5.40;2.50;;;;;;;13.30;73.21;97052.91;130429;1264;115208;-69
2023/11/05 13:34:17;;;;;;;5.10;2.70;;;;;;;13.27;73.46;97055.88;130416;1252;115577;-70
2023/11/05 13:37:23;;;;;;;4.00;2.90;;;;;;;13.22;73.40;97056.73;130188;1275;127595;-69
2023/11/05 13:40:26;;;;;;;3.10;2.30;;;;;;;13.15;73.45;97056.95;130357;1257;114730;-68
2023/11/05 13:43:29;;;;;;;4.00;2.70;;;;;;;13.08;73.64;97054.02;130399;1267;114766;-68
2023/11/05 13:46:31;;;;;;;4.00;2.30;;;;;;;12.99;73.57;97057.14;130462;1257;114686;-73
2023/11/05 13:49:34;;;;;;;3.50;2.40;;;;;;;12.91;73.80;97066.38;130475;1262;115476;-70
2023/11/05 13:52:36;;;;;;;5.40;2.80;;;;;;;12.84;73.99;97072.55;130321;1266;115133;-69
2023/11/05 13:55:38;;;;;;;5.20;3.10;;;;;;;12.77;74.10;97077.36;130347;1257;114699;-68
2023/11/05 13:58:40;;;;;;;5.70;3.30;;;;;;;12.70;74.38;97080.56;130580;1257;114955;-76
2023/11/05 14:01:43;;;;;;;6.00;3.60;;;;;;;12.64;74.71;97082.98;130280;1255;115190;-71
2023/11/05 14:04:45;;;;;;;6.60;3.40;;;;;;;12.59;74.77;97086.79;130535;1266;114750;-68
2023/11/05 14:07:48;;;;;;;5.10;3.30;;;;;;;12.55;75.06;97087.55;130500;1267;114730;-68
2023/11/05 14:10:51;;;;;;;5.70;3.30;;;;;;;12.51;75.19;97095.70;130522;1266;115407;-68
2023/11/05 14:13:53;;;;;;;7.00;3.10;;;;;;;12.48;75.65;97098.61;130398;1256;115045;-68
2023/11/05 14:16:55;;;;;;;6.00;4.20;;;;;;;12.44;75.67;97107.15;130414;1257;114711;-67
2023/11/05 14:19:57;;;;;;;6.40;4.00;;;;;;;12.42;75.74;97103.42;130537;1256;114752;-68
2023/11/05 14:23:00;;;;;;;6.70;3.40;;;;;;;12.42;75.90;97109.60;130451;1260;114709;-69
2023/11/05 14:26:03;;;;;;;8.90;4.30;;;;;;;12.42;75.99;97113.15;130554;1255;114773;-69
2023/11/05 14:29:05;;;;;;;8.30;4.20;;;;;;;12.42;76.34;97109.96;130360;1264;114756;-69
2023/11/05 14:32:08;;;;;;;7.30;4.30;;;;;;;12.41;76.33;97116.32;130666;1257;114741;-67
2023/11/05 14:35:10;;;;;;;5.90;3.70;;;;;;;12.40;76.56;97118.90;130149;1270;115373;-69
2023/11/05 14:38:12;;;;;;;8.00;4.20;;;;;;;12.39;76.51;97122.22;130419;1257;114791;-72
2023/11/05 14:41:14;;;;;;;4.90;3.80;;;;;;;12.40;76.81;97129.81;130482;1260;114793;-69
2023/11/05 14:44:16;;;;;;;6.00;3.60;;;;;;;12.41;76.70;97130.23;130377;1257;115203;-68
2023/11/05 14:47:18;;;;;;;7.80;4.10;;;;;;;12.41;76.75;97131.69;130400;1275;114681;-71
2023/11/05 14:50:21;;;;;;;5.60;3.80;;;;;;;12.41;77.05;97132.05;130502;1258;114721;-71
2023/11/05 14:53:27;;;;;;;6.60;3.60;;;;;;;12.40;77.14;97138.03;130417;1267;115369;-68
2023/11/05 14:56:36;;;;;;;8.80;4.40;;;;;;;12.37;77.21;97137.84;130412;1257;114849;-67
2023/11/05 14:59:38;;;;;;;6.70;4.00;;;;;;;12.34;77.43;97141.00;130329;1260;114811;-70
2023/11/05 15:02:40;;;;;;;6.80;4.30;;;;;;;12.32;77.63;97140.40;130416;1255;114764;-70
2023/11/05 15:05:47;;;;;;;8.00;4.60;;;;;;;12.29;78.07;97142.45;130339;1259;115212;-68
2023/11/05 15:08:51;;;;;;;6.90;4.10;;;;;;;12.28;78.24;97149.89;130542;1260;115359;-69
2023/11/05 15:11:54;;;;;;;8.30;5.00;;;;;;;12.25;78.31;97152.70;130476;1257;115493;-71
2023/11/05 15:14:56;;;;;;;7.20;5.00;;;;;;;12.22;78.43;97155.52;130372;1257;114776;-71
2023/11/05 15:17:58;;;;;;;10.80;6.10;;;;;;;12.20;78.23;97156.52;130507;1260;114741;-70
2023/11/05 15:21:00;;;;;;;9.50;5.10;;;;;;;12.18;78.54;97161.73;130087;1270;127636;-71
2023/11/05 15:24:02;;;;;;;8.70;5.40;;;;;;;12.17;78.95;97167.33;130415;1276;115384;-66
2023/11/05 15:27:05;;;;;;;11.70;6.00;;;;;;;12.15;78.72;97170.94;130513;1267;114646;-66
2023/11/05 15:30:09;;;;;;;8.50;5.10;;;;;;;12.15;79.28;97168.31;130486;1257;115106;-67
2023/11/05 15:33:17;;;;;;;7.60;4.70;;;;;;;12.12;79.31;97169.51;130429;1260;114738;-67
2023/11/05 15:36:19;;;;;;;7.60;4.20;;;;;;;12.10;80.05;97167.09;130420;1259;114651;-67
2023/11/05 15:39:21;;;;;;;12.00;4.80;;;;;;;12.06;79.96;97174.06;130465;1257;114869;-70
2023/11/05 15:42:24;;;;;;;9.90;4.50;;;;;;;12.02;80.27;97179.38;130281;1257;115083;-65
2023/11/05 15:45:29;;;;;;;16.50;7.30;;;;;;;11.95;80.27;97181.48;130514;1267;115338;-65
2023/11/05 15:48:33;;;;;;;17.60;10.10;;;;;;;11.91;80.66;97189.20;130590;1258;114629;-67
2023/11/05 15:51:36;;;;;;;14.50;7.50;;;;;;;11.87;80.46;97196.27;130546;1251;115159;-67
2023/11/05 15:54:44;;;;;;;13.10;8.00;;;;;;;11.83;80.93;97196.61;130505;1264;114650;-64
2023/11/05 15:57:48;;;;;;;19.60;9.40;;;;;;;11.80;80.65;97204.84;130484;1265;114818;-66
2023/11/05 16:00:51;;;;;;;16.80;8.90;;;;;;;11.76;80.96;97204.36;130746;1254;114791;-65
2023/11/05 16:03:54;;;;;;;13.50;6.80;;;;;;;11.73;80.99;97206.66;128006;1260;3389780;-65
2023/11/05 16:06:56;;;;;;;9.70;5.40;;;;;;;11.70;81.02;97216.04;130518;1267;114690;-63
2023/11/05 16:09:58;;;;;;;9.50;4.80;;;;;;;11.69;80.93;97222.39;130567;1257;114770;-66
2023/11/05 16:13:00;;;;;;;8.70;3.90;;;;;;;11.68;81.06;97223.05;130594;1257;128483;-66
2023/11/05 16:16:04;;;;;;;5.40;3.30;;;;;;;11.67;80.85;97232.44;130498;1257;114698;-67
2023/11/05 16:19:06;;;;;;;6.50;4.10;;;;;;;11.66;81.01;97235.92;130657;1275;114712;-65
2023/11/05 16:22:08;;;;;;;5.40;3.40;;;;;;;11.65;80.65;97239.84;130668;1257;114940;-64
2023/11/05 16:25:10;;;;;;;4.90;3.40;;;;;;;11.62;80.63;97241.93;130590;1257;114689;-63
2023/11/05 16:28:13;;;;;;;6.30;3.90;;;;;;;11.59;80.53;97253.09;130136;1254;114804;-59
2023/11/05 16:31:24;;;;;;;5.10;3.40;;;;;;;11.54;80.25;97256.13;130161;1257;114725;-62
2023/11/05 16:34:26;;;;;;;5.70;3.30;;;;;;;11.46;80.36;97261.20;130163;1275;115229;-62
2023/11/05 16:37:31;;;;;;;4.90;3.30;;;;;;;11.37;80.17;97268.05;130251;1257;114716;-60
2023/11/05 16:40:35;;;;;;;5.50;3.30;;;;;;;11.27;79.74;97270.11;129982;1259;116314;-64
2023/11/05 16:43:38;;;;;;;5.70;3.60;;;;;;;11.17;80.16;97280.25;130114;1257;114804;-63
2023/11/05 16:46:40;;;;;;;5.70;3.90;;;;;;;11.05;80.34;97294.59;130280;1266;114791;-62
2023/11/05 16:49:42;;;;;;;7.20;3.40;;;;;;;10.95;80.23;97302.23;130322;1257;115701;-60
2023/11/05 16:52:47;;;;;;;7.00;3.80;;;;;;;10.86;80.11;97304.73;129792;1261;115699;-61
2023/11/05 16:55:49;;;;;;;7.10;4.50;;;;;;;10.76;80.20;97317.81;130125;1267;115100;-59
2023/11/05 16:58:51;;;;;;;8.90;4.50;;;;;;;10.68;80.26;97319.89;130249;1274;114724;-63
2023/11/05 17:01:54;;;;;;;5.00;3.10;;;;;;;10.59;80.59;97326.23;130322;1251;115400;-59
2023/11/05 17:04:57;;;;;;;9.10;3.80;;;;;;;10.52;80.31;97327.52;129932;1258;115152;-62
2023/11/05 17:07:59;;;;;;;7.70;4.40;;;;;;;10.45;80.59;97334.34;130255;1257;114776;-62
2023/11/05 17:11:02;;;;;;;6.70;4.40;;;;;;;10.41;80.81;97341.58;130250;1251;115556;-64
2023/11/05 17:14:05;;;;;;;10.20;5.30;;;;;;;10.37;80.92;97342.52;129929;1260;115195;-63
2023/11/05 17:17:07;;;;;;;9.30;4.00;;;;;;;10.36;80.88;97345.98;130076;1258;114696;-61
2023/11/05 17:20:10;;;;;;;6.60;3.60;;;;;;;10.36;80.90;97351.81;130062;1258;114868;-63
2023/11/05 17:23:12;;;;;;;6.10;3.40;;;;;;;10.39;81.00;97361.23;130200;1254;114710;-63
2023/11/05 17:26:15;;;;;;;5.70;3.30;;;;;;;10.42;81.19;97367.32;129731;1254;114795;-64
2023/11/05 17:29:20;;;;;;;10.00;5.30;;;;;;;10.46;81.20;97375.86;130035;1257;115121;-64
2023/11/05 17:32:23;;;;;;;10.30;4.90;;;;;;;10.51;81.29;97370.80;130168;1275;115266;-64
2023/11/05 17:35:25;;;;;;;13.20;5.60;;;;;;;10.55;81.07;97373.45;130048;1275;114837;-64
2023/11/05 17:38:28;;;;;;;11.90;5.40;;;;;;;10.58;81.32;97377.22;130060;1257;114724;-62
2023/11/05 17:41:30;;;;;;;8.20;5.10;;;;;;;10.62;81.62;97382.17;130103;1254;114730;-62
2023/11/05 17:44:33;;;;;;;5.70;3.60;;;;;;;10.67;81.87;97393.55;130020;1257;115150;-62
2023/11/05 17:47:35;;;;;;;9.90;4.80;;;;;;;10.70;81.79;97393.95;129889;1275;129050;-60
2023/11/05 17:50:37;;;;;;;7.80;4.40;;;;;;;10.73;81.96;97393.52;129989;1266;115335;-62
2023/11/05 17:53:42;;;;;;;;;;;;;;;10.75;82.27;97390.73;129928;1254;114835;-63